Weather Data

Pearl Creek Farm: 8878 N Farm Road 75, Walnut Grove MO 65770

<== Previous Day (Wednesday 20 Jun 2018) | Next Day (Friday 22 Jun 2018) ==>

Summary Precipitation Data For Thursday 21 June 2018

ElementValueUnits
Precipitation0.15"
NotesStorms yesterday afternoon.
SourcePearl Creek Farm

Summary Temperature Data For Thursday 21 June 2018

ElementValueUnits
High Temperature82 oF
Low Temperature69 oF
Average Temperature74 oF
High Humidity90 %
Low Humidity41 %
Average Humidity67 %
SourceSpringfield-Branson National Airport (SGF)

Detail Temperature Data For Thursday 21 June 2018

Date / TimeTemp (F)RH (%)Dew Pt (F)Report Date / TimeSource
2018-06-21 04:52:00 70 90 67.0 2019-02-02 11:24:24.260017 Springfield-Branson National Airport (SGF)
2018-06-21 05:52:00 71 90 68.0 2019-02-02 11:24:24.260017 Springfield-Branson National Airport (SGF)
2018-06-21 00:52:00 70 90 67.0 2019-02-02 11:24:24.260017 Springfield-Branson National Airport (SGF)
2018-06-21 01:52:00 70 90 67.0 2019-02-02 11:24:24.260017 Springfield-Branson National Airport (SGF)
2018-06-21 02:52:00 70 90 67.0 2019-02-02 11:24:24.260017 Springfield-Branson National Airport (SGF)
2018-06-21 03:52:00 70 90 67.0 2019-02-02 11:24:24.260017 Springfield-Branson National Airport (SGF)
2018-06-21 06:52:00 71 84 66.0 2019-02-02 11:24:24.260017 Springfield-Branson National Airport (SGF)
2018-06-21 07:52:00 69 76 61.0 2019-02-02 11:24:24.260017 Springfield-Branson National Airport (SGF)
2018-06-21 08:52:00 72 66 60.0 2019-02-02 11:24:24.260017 Springfield-Branson National Airport (SGF)
2018-06-21 09:52:00 74 60 59.0 2019-02-02 11:24:24.260017 Springfield-Branson National Airport (SGF)
2018-06-21 10:52:00 76 54 58.0 2019-02-02 11:24:24.260017 Springfield-Branson National Airport (SGF)
2018-06-21 11:52:00 79 49 58.0 2019-02-02 11:24:24.260017 Springfield-Branson National Airport (SGF)
2018-06-21 12:52:00 81 45 58.0 2019-02-02 11:24:24.260017 Springfield-Branson National Airport (SGF)
2018-06-21 13:52:00 82 41 56.0 2019-02-02 11:24:24.260017 Springfield-Branson National Airport (SGF)
2018-06-21 14:52:00 77 56 60.0 2019-02-02 11:24:24.260017 Springfield-Branson National Airport (SGF)
2018-06-21 15:52:00 78 50 58.0 2019-02-02 11:24:24.260017 Springfield-Branson National Airport (SGF)
2018-06-21 16:52:00 78 48 57.0 2019-02-02 11:24:24.260017 Springfield-Branson National Airport (SGF)
2018-06-21 17:52:00 76 54 58.0 2019-02-02 11:24:24.260017 Springfield-Branson National Airport (SGF)
2018-06-21 18:52:00 76 54 58.0 2019-02-02 11:24:24.260017 Springfield-Branson National Airport (SGF)
2018-06-21 19:52:00 74 57 58.0 2019-02-02 11:24:24.260017 Springfield-Branson National Airport (SGF)
2018-06-21 20:52:00 73 62 59.0 2019-02-02 11:24:24.260017 Springfield-Branson National Airport (SGF)
2018-06-21 21:52:00 71 66 59.0 2019-02-02 11:24:24.260017 Springfield-Branson National Airport (SGF)
2018-06-21 22:52:00 70 68 59.0 2019-02-02 11:24:24.260017 Springfield-Branson National Airport (SGF)
2018-06-21 23:52:00 69 73 60.0 2019-02-02 11:24:24.260017 Springfield-Branson National Airport (SGF)

A total of 24 rows are displayed.